sensor_id;sensor_type;location;lat;lon;timestamp;temperature;humidity
18141;DHT22;9196;49.194;12.526;2023-07-13T00:01:30;20.90;99.90
18141;DHT22;9196;49.194;12.526;2023-07-13T00:03:58;20.90;99.90
18141;DHT22;9196;49.194;12.526;2023-07-13T00:06:24;21.00;99.90
18141;DHT22;9196;49.194;12.526;2023-07-13T00:08:55;21.00;99.90
18141;DHT22;9196;49.194;12.526;2023-07-13T00:11:23;21.10;99.90
18141;DHT22;9196;49.194;12.526;2023-07-13T00:13:51;21.00;99.90
18141;DHT22;9196;49.194;12.526;2023-07-13T00:16:18;21.00;99.90
18141;DHT22;9196;49.194;12.526;2023-07-13T00:18:45;21.10;99.90
18141;DHT22;9196;49.194;12.526;2023-07-13T00:21:12;21.10;99.90
18141;DHT22;9196;49.194;12.526;2023-07-13T00:23:41;21.00;99.90
18141;DHT22;9196;49.194;12.526;2023-07-13T00:26:09;21.10;99.90
18141;DHT22;9196;49.194;12.526;2023-07-13T00:28:39;21.00;99.90
18141;DHT22;9196;49.194;12.526;2023-07-13T00:31:07;21.00;99.90
18141;DHT22;9196;49.194;12.526;2023-07-13T00:33:34;20.90;99.90
18141;DHT22;9196;49.194;12.526;2023-07-13T00:36:01;21.00;99.90
18141;DHT22;9196;49.194;12.526;2023-07-13T00:38:28;21.10;99.90
18141;DHT22;9196;49.194;12.526;2023-07-13T00:40:55;21.10;99.90
18141;DHT22;9196;49.194;12.526;2023-07-13T00:43:27;21.10;99.90
18141;DHT22;9196;49.194;12.526;2023-07-13T00:46:18;21.20;99.90
18141;DHT22;9196;49.194;12.526;2023-07-13T00:48:46;21.10;99.90
18141;DHT22;9196;49.194;12.526;2023-07-13T00:51:15;21.10;99.90
18141;DHT22;9196;49.194;12.526;2023-07-13T00:53:42;21.10;99.90
18141;DHT22;9196;49.194;12.526;2023-07-13T00:56:09;21.10;99.90
18141;DHT22;9196;49.194;12.526;2023-07-13T00:58:37;21.10;99.90
18141;DHT22;9196;49.194;12.526;2023-07-13T01:01:04;21.10;99.90
18141;DHT22;9196;49.194;12.526;2023-07-13T01:03:32;21.10;99.90
18141;DHT22;9196;49.194;12.526;2023-07-13T01:06:00;21.00;99.90
18141;DHT22;9196;49.194;12.526;2023-07-13T01:08:27;21.00;99.90
18141;DHT22;9196;49.194;12.526;2023-07-13T01:10:56;20.90;99.90
18141;DHT22;9196;49.194;12.526;2023-07-13T01:13:23;20.90;99.90
18141;DHT22;9196;49.194;12.526;2023-07-13T01:15:52;20.90;99.90
18141;DHT22;9196;49.194;12.526;2023-07-13T01:18:21;20.90;99.90
18141;DHT22;9196;49.194;12.526;2023-07-13T01:20:52;20.90;99.90
18141;DHT22;9196;49.194;12.526;2023-07-13T01:23:20;20.90;99.90
18141;DHT22;9196;49.194;12.526;2023-07-13T01:25:46;20.80;99.90
18141;DHT22;9196;49.194;12.526;2023-07-13T01:28:13;20.80;99.90
18141;DHT22;9196;49.194;12.526;2023-07-13T01:30:43;20.70;99.90
18141;DHT22;9196;49.194;12.526;2023-07-13T01:33:11;20.60;99.90
18141;DHT22;9196;49.194;12.526;2023-07-13T01:35:38;20.70;99.90
18141;DHT22;9196;49.194;12.526;2023-07-13T01:38:07;20.60;99.90
18141;DHT22;9196;49.194;12.526;2023-07-13T01:40:35;20.50;99.90
18141;DHT22;9196;49.194;12.526;2023-07-13T01:43:02;20.40;99.90
18141;DHT22;9196;49.194;12.526;2023-07-13T01:45:28;20.40;99.90
18141;DHT22;9196;49.194;12.526;2023-07-13T01:47:55;20.40;99.90
18141;DHT22;9196;49.194;12.526;2023-07-13T01:50:23;20.40;99.90
18141;DHT22;9196;49.194;12.526;2023-07-13T01:52:50;20.40;99.90
18141;DHT22;9196;49.194;12.526;2023-07-13T01:55:18;20.30;99.90
18141;DHT22;9196;49.194;12.526;2023-07-13T01:57:46;20.30;99.90
18141;DHT22;9196;49.194;12.526;2023-07-13T02:00:14;20.30;99.90
18141;DHT22;9196;49.194;12.526;2023-07-13T02:02:41;20.30;99.90
18141;DHT22;9196;49.194;12.526;2023-07-13T02:05:08;20.20;99.90
18141;DHT22;9196;49.194;12.526;2023-07-13T02:07:35;20.30;99.90
18141;DHT22;9196;49.194;12.526;2023-07-13T02:10:02;20.30;99.90
18141;DHT22;9196;49.194;12.526;2023-07-13T02:12:30;20.50;99.90
18141;DHT22;9196;49.194;12.526;2023-07-13T02:14:57;20.50;99.90
18141;DHT22;9196;49.194;12.526;2023-07-13T02:17:25;20.60;99.90
18141;DHT22;9196;49.194;12.526;2023-07-13T02:19:52;20.60;99.90
18141;DHT22;9196;49.194;12.526;2023-07-13T02:22:19;20.70;99.90
18141;DHT22;9196;49.194;12.526;2023-07-13T02:24:46;20.70;99.90
18141;DHT22;9196;49.194;12.526;2023-07-13T02:27:13;20.70;99.90
18141;DHT22;9196;49.194;12.526;2023-07-13T02:29:41;20.70;99.90
18141;DHT22;9196;49.194;12.526;2023-07-13T02:32:08;20.70;99.90
18141;DHT22;9196;49.194;12.526;2023-07-13T02:34:35;20.70;99.90
18141;DHT22;9196;49.194;12.526;2023-07-13T02:37:02;20.70;99.90
18141;DHT22;9196;49.194;12.526;2023-07-13T02:39:29;20.70;99.90
18141;DHT22;9196;49.194;12.526;2023-07-13T02:41:58;20.70;99.90
18141;DHT22;9196;49.194;12.526;2023-07-13T02:44:25;20.70;99.90
18141;DHT22;9196;49.194;12.526;2023-07-13T02:46:53;20.60;99.90
18141;DHT22;9196;49.194;12.526;2023-07-13T02:49:20;20.50;99.90
18141;DHT22;9196;49.194;12.526;2023-07-13T02:51:47;20.50;99.90
18141;DHT22;9196;49.194;12.526;2023-07-13T02:54:14;20.50;99.90
18141;DHT22;9196;49.194;12.526;2023-07-13T02:56:41;20.40;99.90
18141;DHT22;9196;49.194;12.526;2023-07-13T02:59:09;20.40;99.90
18141;DHT22;9196;49.194;12.526;2023-07-13T03:01:36;20.30;99.90
18141;DHT22;9196;49.194;12.526;2023-07-13T03:04:04;20.30;99.90
18141;DHT22;9196;49.194;12.526;2023-07-13T03:06:32;20.30;99.90
18141;DHT22;9196;49.194;12.526;2023-07-13T03:08:59;20.30;99.90
18141;DHT22;9196;49.194;12.526;2023-07-13T03:11:26;20.30;99.90
18141;DHT22;9196;49.194;12.526;2023-07-13T03:13:53;20.20;99.90
18141;DHT22;9196;49.194;12.526;2023-07-13T03:16:20;20.20;99.90
18141;DHT22;9196;49.194;12.526;2023-07-13T03:18:47;20.20;99.90
18141;DHT22;9196;49.194;12.526;2023-07-13T03:21:16;20.20;99.90
18141;DHT22;9196;49.194;12.526;2023-07-13T03:23:43;20.20;99.90
18141;DHT22;9196;49.194;12.526;2023-07-13T03:26:11;20.10;99.90
18141;DHT22;9196;49.194;12.526;2023-07-13T03:28:39;20.00;99.90
18141;DHT22;9196;49.194;12.526;2023-07-13T03:31:08;19.90;99.90
18141;DHT22;9196;49.194;12.526;2023-07-13T03:33:35;19.80;99.90
18141;DHT22;9196;49.194;12.526;2023-07-13T03:36:03;19.90;99.90
18141;DHT22;9196;49.194;12.526;2023-07-13T03:38:32;20.00;99.90
18141;DHT22;9196;49.194;12.526;2023-07-13T03:40:59;20.10;99.90
18141;DHT22;9196;49.194;12.526;2023-07-13T03:43:26;20.10;99.90
18141;DHT22;9196;49.194;12.526;2023-07-13T03:46:07;20.10;99.90
18141;DHT22;9196;49.194;12.526;2023-07-13T03:48:34;20.20;99.90
18141;DHT22;9196;49.194;12.526;2023-07-13T03:51:02;20.10;99.90
18141;DHT22;9196;49.194;12.526;2023-07-13T03:53:29;20.10;99.90
18141;DHT22;9196;49.194;12.526;2023-07-13T03:55:58;20.10;99.90
18141;DHT22;9196;49.194;12.526;2023-07-13T03:58:31;20.00;99.90
18141;DHT22;9196;49.194;12.526;2023-07-13T04:01:02;19.90;99.90
18141;DHT22;9196;49.194;12.526;2023-07-13T04:03:31;19.80;99.90
18141;DHT22;9196;49.194;12.526;2023-07-13T04:06:02;19.90;99.90
18141;DHT22;9196;49.194;12.526;2023-07-13T04:08:31;19.80;99.90
18141;DHT22;9196;49.194;12.526;2023-07-13T04:11:00;19.80;99.90
18141;DHT22;9196;49.194;12.526;2023-07-13T04:13:27;19.80;99.90
18141;DHT22;9196;49.194;12.526;2023-07-13T04:15:54;19.80;99.90
18141;DHT22;9196;49.194;12.526;2023-07-13T04:18:22;19.80;99.90
18141;DHT22;9196;49.194;12.526;2023-07-13T04:20:50;19.80;99.90
18141;DHT22;9196;49.194;12.526;2023-07-13T04:23:17;19.70;99.90
18141;DHT22;9196;49.194;12.526;2023-07-13T04:25:44;19.70;99.90
18141;DHT22;9196;49.194;12.526;2023-07-13T04:28:15;19.80;99.90
18141;DHT22;9196;49.194;12.526;2023-07-13T04:30:42;19.70;99.90
18141;DHT22;9196;49.194;12.526;2023-07-13T04:33:10;19.70;99.90
18141;DHT22;9196;49.194;12.526;2023-07-13T04:35:36;19.80;99.90
18141;DHT22;9196;49.194;12.526;2023-07-13T04:38:04;19.70;99.90
18141;DHT22;9196;49.194;12.526;2023-07-13T04:40:31;19.70;99.90
18141;DHT22;9196;49.194;12.526;2023-07-13T04:42:58;19.70;99.90
18141;DHT22;9196;49.194;12.526;2023-07-13T04:45:26;19.60;99.90
18141;DHT22;9196;49.194;12.526;2023-07-13T04:47:53;19.60;99.90
18141;DHT22;9196;49.194;12.526;2023-07-13T04:50:20;19.60;99.90
18141;DHT22;9196;49.194;12.526;2023-07-13T04:52:49;19.60;99.90
18141;DHT22;9196;49.194;12.526;2023-07-13T04:55:16;19.60;99.90
18141;DHT22;9196;49.194;12.526;2023-07-13T04:57:43;19.50;99.90
18141;DHT22;9196;49.194;12.526;2023-07-13T05:00:11;19.50;99.90
18141;DHT22;9196;49.194;12.526;2023-07-13T05:02:40;19.50;99.90
18141;DHT22;9196;49.194;12.526;2023-07-13T05:05:07;19.40;99.90
18141;DHT22;9196;49.194;12.526;2023-07-13T05:07:34;19.50;99.90
18141;DHT22;9196;49.194;12.526;2023-07-13T05:10:01;19.60;99.90
18141;DHT22;9196;49.194;12.526;2023-07-13T05:12:29;19.60;99.90
18141;DHT22;9196;49.194;12.526;2023-07-13T05:14:56;19.60;99.90
18141;DHT22;9196;49.194;12.526;2023-07-13T05:17:23;19.70;99.90
18141;DHT22;9196;49.194;12.526;2023-07-13T05:19:51;19.80;99.90
18141;DHT22;9196;49.194;12.526;2023-07-13T05:22:18;19.70;99.90
18141;DHT22;9196;49.194;12.526;2023-07-13T05:24:48;19.80;99.90
18141;DHT22;9196;49.194;12.526;2023-07-13T05:27:14;19.70;99.90
18141;DHT22;9196;49.194;12.526;2023-07-13T05:29:41;19.80;99.90
18141;DHT22;9196;49.194;12.526;2023-07-13T05:32:08;19.70;99.90
18141;DHT22;9196;49.194;12.526;2023-07-13T05:34:35;19.70;99.90
18141;DHT22;9196;49.194;12.526;2023-07-13T05:37:04;19.80;99.90
18141;DHT22;9196;49.194;12.526;2023-07-13T05:39:31;19.80;99.90
18141;DHT22;9196;49.194;12.526;2023-07-13T05:41:58;19.80;99.90
18141;DHT22;9196;49.194;12.526;2023-07-13T05:44:25;19.90;99.90
18141;DHT22;9196;49.194;12.526;2023-07-13T05:46:51;19.90;99.90
18141;DHT22;9196;49.194;12.526;2023-07-13T05:49:18;19.80;99.90
18141;DHT22;9196;49.194;12.526;2023-07-13T05:51:48;19.90;99.90
18141;DHT22;9196;49.194;12.526;2023-07-13T05:54:16;19.90;99.90
18141;DHT22;9196;49.194;12.526;2023-07-13T05:56:43;20.00;99.90
18141;DHT22;9196;49.194;12.526;2023-07-13T05:59:10;20.00;99.90
18141;DHT22;9196;49.194;12.526;2023-07-13T06:01:37;20.20;99.90
18141;DHT22;9196;49.194;12.526;2023-07-13T06:04:04;20.40;99.90
18141;DHT22;9196;49.194;12.526;2023-07-13T06:06:32;20.50;99.90
18141;DHT22;9196;49.194;12.526;2023-07-13T06:08:59;20.50;99.90
18141;DHT22;9196;49.194;12.526;2023-07-13T06:11:28;20.60;99.90
18141;DHT22;9196;49.194;12.526;2023-07-13T06:13:55;20.70;99.90
18141;DHT22;9196;49.194;12.526;2023-07-13T06:16:23;20.90;99.90
18141;DHT22;9196;49.194;12.526;2023-07-13T06:18:49;20.90;99.90
18141;DHT22;9196;49.194;12.526;2023-07-13T06:21:18;21.10;99.90
18141;DHT22;9196;49.194;12.526;2023-07-13T06:23:47;21.20;99.90
18141;DHT22;9196;49.194;12.526;2023-07-13T06:26:14;21.40;99.90
18141;DHT22;9196;49.194;12.526;2023-07-13T06:28:43;21.50;99.90
18141;DHT22;9196;49.194;12.526;2023-07-13T06:31:11;21.70;99.90
18141;DHT22;9196;49.194;12.526;2023-07-13T06:33:38;21.70;99.90
18141;DHT22;9196;49.194;12.526;2023-07-13T06:36:07;21.70;99.90
18141;DHT22;9196;49.194;12.526;2023-07-13T06:38:35;21.70;99.90
18141;DHT22;9196;49.194;12.526;2023-07-13T06:41:02;21.70;99.90
18141;DHT22;9196;49.194;12.526;2023-07-13T06:43:29;21.90;99.90
18141;DHT22;9196;49.194;12.526;2023-07-13T06:45:59;22.00;99.90
18141;DHT22;9196;49.194;12.526;2023-07-13T06:48:27;22.20;99.90
18141;DHT22;9196;49.194;12.526;2023-07-13T06:50:54;22.20;99.90
18141;DHT22;9196;49.194;12.526;2023-07-13T06:53:22;22.20;99.90
18141;DHT22;9196;49.194;12.526;2023-07-13T06:55:49;22.20;99.90
18141;DHT22;9196;49.194;12.526;2023-07-13T06:58:17;22.20;99.90
18141;DHT22;9196;49.194;12.526;2023-07-13T07:00:45;22.20;99.90
18141;DHT22;9196;49.194;12.526;2023-07-13T07:03:13;22.00;99.90
18141;DHT22;9196;49.194;12.526;2023-07-13T07:05:40;21.90;99.90
18141;DHT22;9196;49.194;12.526;2023-07-13T07:08:07;21.80;99.90
18141;DHT22;9196;49.194;12.526;2023-07-13T07:10:34;21.60;99.90
18141;DHT22;9196;49.194;12.526;2023-07-13T07:13:03;21.60;99.90
18141;DHT22;9196;49.194;12.526;2023-07-13T07:15:32;21.80;99.90
18141;DHT22;9196;49.194;12.526;2023-07-13T07:18:00;21.90;99.90
18141;DHT22;9196;49.194;12.526;2023-07-13T07:20:29;22.10;99.90
18141;DHT22;9196;49.194;12.526;2023-07-13T07:22:56;22.20;99.90
18141;DHT22;9196;49.194;12.526;2023-07-13T07:25:23;22.20;99.90
18141;DHT22;9196;49.194;12.526;2023-07-13T07:27:52;22.30;99.90
18141;DHT22;9196;49.194;12.526;2023-07-13T07:30:19;22.50;99.90
18141;DHT22;9196;49.194;12.526;2023-07-13T07:32:45;22.70;99.90
18141;DHT22;9196;49.194;12.526;2023-07-13T07:35:12;22.70;99.90
18141;DHT22;9196;49.194;12.526;2023-07-13T07:37:41;22.90;97.50
18141;DHT22;9196;49.194;12.526;2023-07-13T07:40:08;23.10;97.70
18141;DHT22;9196;49.194;12.526;2023-07-13T07:42:35;23.30;96.70
18141;DHT22;9196;49.194;12.526;2023-07-13T07:45:02;23.50;96.90
18141;DHT22;9196;49.194;12.526;2023-07-13T07:47:29;23.50;95.00
18141;DHT22;9196;49.194;12.526;2023-07-13T07:49:56;23.50;93.40
18141;DHT22;9196;49.194;12.526;2023-07-13T07:52:23;23.50;93.50
18141;DHT22;9196;49.194;12.526;2023-07-13T07:54:51;23.40;91.80
18141;DHT22;9196;49.194;12.526;2023-07-13T07:57:18;23.00;93.70
18141;DHT22;9196;49.194;12.526;2023-07-13T07:59:45;23.10;95.70
18141;DHT22;9196;49.194;12.526;2023-07-13T08:02:12;23.30;94.80
18141;DHT22;9196;49.194;12.526;2023-07-13T08:04:38;23.40;94.10
18141;DHT22;9196;49.194;12.526;2023-07-13T08:07:05;23.70;93.60
18141;DHT22;9196;49.194;12.526;2023-07-13T08:09:32;23.70;93.60
18141;DHT22;9196;49.194;12.526;2023-07-13T08:12:07;23.80;93.90
18141;DHT22;9196;49.194;12.526;2023-07-13T08:14:34;23.80;94.00
18141;DHT22;9196;49.194;12.526;2023-07-13T08:17:01;23.90;93.10
18141;DHT22;9196;49.194;12.526;2023-07-13T08:19:28;23.70;93.40
18141;DHT22;9196;49.194;12.526;2023-07-13T08:21:58;23.60;93.30
18141;DHT22;9196;49.194;12.526;2023-07-13T08:24:27;23.70;93.40
18141;DHT22;9196;49.194;12.526;2023-07-13T08:26:53;23.70;93.30
18141;DHT22;9196;49.194;12.526;2023-07-13T08:29:23;23.70;93.30
18141;DHT22;9196;49.194;12.526;2023-07-13T08:31:50;23.80;93.70
18141;DHT22;9196;49.194;12.526;2023-07-13T08:34:16;23.80;93.20
18141;DHT22;9196;49.194;12.526;2023-07-13T08:36:43;23.90;94.20
18141;DHT22;9196;49.194;12.526;2023-07-13T08:39:10;23.80;93.90
18141;DHT22;9196;49.194;12.526;2023-07-13T08:41:38;23.80;93.80
18141;DHT22;9196;49.194;12.526;2023-07-13T08:44:16;23.80;93.30
18141;DHT22;9196;49.194;12.526;2023-07-13T08:46:56;23.80;94.10
18141;DHT22;9196;49.194;12.526;2023-07-13T08:49:25;23.60;93.10
18141;DHT22;9196;49.194;12.526;2023-07-13T08:51:57;23.80;93.80
18141;DHT22;9196;49.194;12.526;2023-07-13T08:54:29;23.90;92.20
18141;DHT22;9196;49.194;12.526;2023-07-13T08:56:58;23.80;92.30
18141;DHT22;9196;49.194;12.526;2023-07-13T08:59:29;24.10;92.50
18141;DHT22;9196;49.194;12.526;2023-07-13T09:02:16;24.30;92.50
18141;DHT22;9196;49.194;12.526;2023-07-13T09:04:50;24.40;91.70
18141;DHT22;9196;49.194;12.526;2023-07-13T09:07:29;24.30;91.30
18141;DHT22;9196;49.194;12.526;2023-07-13T09:10:06;24.40;91.40
18141;DHT22;9196;49.194;12.526;2023-07-13T09:12:45;24.40;90.30
18141;DHT22;9196;49.194;12.526;2023-07-13T09:15:23;24.70;91.90
18141;DHT22;9196;49.194;12.526;2023-07-13T09:17:53;24.90;86.70
18141;DHT22;9196;49.194;12.526;2023-07-13T09:20:26;24.80;86.90
18141;DHT22;9196;49.194;12.526;2023-07-13T09:22:56;24.70;85.90
18141;DHT22;9196;49.194;12.526;2023-07-13T09:25:30;24.70;83.30
18141;DHT22;9196;49.194;12.526;2023-07-13T09:28:01;24.70;84.60
18141;DHT22;9196;49.194;12.526;2023-07-13T09:30:34;25.00;88.50
18141;DHT22;9196;49.194;12.526;2023-07-13T09:33:05;25.20;82.20
18141;DHT22;9196;49.194;12.526;2023-07-13T09:35:32;25.40;82.40
18141;DHT22;9196;49.194;12.526;2023-07-13T09:38:10;25.70;78.50
18141;DHT22;9196;49.194;12.526;2023-07-13T09:40:46;25.70;81.00
18141;DHT22;9196;49.194;12.526;2023-07-13T09:43:16;25.90;77.70
18141;DHT22;9196;49.194;12.526;2023-07-13T09:45:46;25.90;73.00
18141;DHT22;9196;49.194;12.526;2023-07-13T09:48:17;25.90;74.40
18141;DHT22;9196;49.194;12.526;2023-07-13T09:50:44;26.00;74.00
18141;DHT22;9196;49.194;12.526;2023-07-13T09:53:12;25.90;73.60
18141;DHT22;9196;49.194;12.526;2023-07-13T09:55:41;25.40;70.30
18141;DHT22;9196;49.194;12.526;2023-07-13T09:58:11;25.20;73.40
18141;DHT22;9196;49.194;12.526;2023-07-13T10:00:38;24.90;70.00
18141;DHT22;9196;49.194;12.526;2023-07-13T10:03:20;24.90;68.40
18141;DHT22;9196;49.194;12.526;2023-07-13T10:05:49;25.10;69.00
18141;DHT22;9196;49.194;12.526;2023-07-13T10:08:25;25.40;67.80
18141;DHT22;9196;49.194;12.526;2023-07-13T10:10:57;25.60;71.30
18141;DHT22;9196;49.194;12.526;2023-07-13T10:13:30;25.40;67.10
18141;DHT22;9196;49.194;12.526;2023-07-13T10:15:59;25.50;69.60
18141;DHT22;9196;49.194;12.526;2023-07-13T10:18:28;25.40;64.20
18141;DHT22;9196;49.194;12.526;2023-07-13T10:21:09;25.50;62.60
18141;DHT22;9196;49.194;12.526;2023-07-13T10:23:37;25.50;64.10
18141;DHT22;9196;49.194;12.526;2023-07-13T10:26:05;25.50;63.20
18141;DHT22;9196;49.194;12.526;2023-07-13T10:28:37;25.70;63.80
18141;DHT22;9196;49.194;12.526;2023-07-13T10:31:08;25.40;64.60
18141;DHT22;9196;49.194;12.526;2023-07-13T10:33:38;25.40;66.60
18141;DHT22;9196;49.194;12.526;2023-07-13T10:36:13;25.50;68.80
18141;DHT22;9196;49.194;12.526;2023-07-13T10:38:41;25.70;68.10
18141;DHT22;9196;49.194;12.526;2023-07-13T10:41:12;25.90;68.30
18141;DHT22;9196;49.194;12.526;2023-07-13T10:43:43;25.90;67.10
18141;DHT22;9196;49.194;12.526;2023-07-13T10:46:12;26.10;69.10
18141;DHT22;9196;49.194;12.526;2023-07-13T10:48:43;26.20;66.30
18141;DHT22;9196;49.194;12.526;2023-07-13T10:51:14;26.40;66.50
18141;DHT22;9196;49.194;12.526;2023-07-13T10:53:41;26.50;65.60
18141;DHT22;9196;49.194;12.526;2023-07-13T10:56:21;26.60;67.70
18141;DHT22;9196;49.194;12.526;2023-07-13T10:59:02;26.50;67.20
18141;DHT22;9196;49.194;12.526;2023-07-13T11:01:40;26.20;65.30
18141;DHT22;9196;49.194;12.526;2023-07-13T11:04:12;25.90;67.50
18141;DHT22;9196;49.194;12.526;2023-07-13T11:06:48;25.80;67.10
18141;DHT22;9196;49.194;12.526;2023-07-13T11:09:36;25.70;67.20
18141;DHT22;9196;49.194;12.526;2023-07-13T11:12:10;25.70;66.90
18141;DHT22;9196;49.194;12.526;2023-07-13T11:15:06;25.50;66.60
18141;DHT22;9196;49.194;12.526;2023-07-13T11:17:48;25.30;69.30
18141;DHT22;9196;49.194;12.526;2023-07-13T11:20:35;25.30;68.70
18141;DHT22;9196;49.194;12.526;2023-07-13T11:23:20;25.50;69.70
18141;DHT22;9196;49.194;12.526;2023-07-13T11:25:53;25.70;69.30
18141;DHT22;9196;49.194;12.526;2023-07-13T11:28:25;25.60;69.50
18141;DHT22;9196;49.194;12.526;2023-07-13T11:31:12;25.60;66.90
18141;DHT22;9196;49.194;12.526;2023-07-13T11:33:50;25.60;67.80
18141;DHT22;9196;49.194;12.526;2023-07-13T11:36:21;25.70;68.80
18141;DHT22;9196;49.194;12.526;2023-07-13T11:38:57;25.70;67.80
18141;DHT22;9196;49.194;12.526;2023-07-13T11:41:33;25.70;69.10
18141;DHT22;9196;49.194;12.526;2023-07-13T11:44:06;25.70;67.10
18141;DHT22;9196;49.194;12.526;2023-07-13T11:46:34;25.70;67.20
18141;DHT22;9196;49.194;12.526;2023-07-13T11:49:00;25.60;66.90
18141;DHT22;9196;49.194;12.526;2023-07-13T11:51:30;25.50;67.90
18141;DHT22;9196;49.194;12.526;2023-07-13T11:54:02;25.40;66.30
18141;DHT22;9196;49.194;12.526;2023-07-13T11:56:30;25.40;68.20
18141;DHT22;9196;49.194;12.526;2023-07-13T11:59:04;25.60;63.90
18141;DHT22;9196;49.194;12.526;2023-07-13T12:01:33;25.90;63.30
18141;DHT22;9196;49.194;12.526;2023-07-13T12:04:02;26.00;63.20
18141;DHT22;9196;49.194;12.526;2023-07-13T12:06:32;26.20;65.70
18141;DHT22;9196;49.194;12.526;2023-07-13T12:09:03;26.50;66.80
18141;DHT22;9196;49.194;12.526;2023-07-13T12:11:34;26.70;63.10
18141;DHT22;9196;49.194;12.526;2023-07-13T12:14:02;26.70;61.70
18141;DHT22;9196;49.194;12.526;2023-07-13T12:16:31;26.90;61.30
18141;DHT22;9196;49.194;12.526;2023-07-13T12:18:59;27.30;62.80
18141;DHT22;9196;49.194;12.526;2023-07-13T12:21:32;27.30;58.80
18141;DHT22;9196;49.194;12.526;2023-07-13T12:24:00;27.20;59.90
18141;DHT22;9196;49.194;12.526;2023-07-13T12:26:29;27.10;58.90
18141;DHT22;9196;49.194;12.526;2023-07-13T12:28:58;27.10;58.80
18141;DHT22;9196;49.194;12.526;2023-07-13T12:31:31;26.60;55.20
18141;DHT22;9196;49.194;12.526;2023-07-13T12:34:01;26.60;57.10
18141;DHT22;9196;49.194;12.526;2023-07-13T12:36:33;26.70;57.10
18141;DHT22;9196;49.194;12.526;2023-07-13T12:39:04;27.10;56.50
18141;DHT22;9196;49.194;12.526;2023-07-13T12:41:36;27.10;53.70
18141;DHT22;9196;49.194;12.526;2023-07-13T12:44:03;27.10;54.40
18141;DHT22;9196;49.194;12.526;2023-07-13T12:46:31;27.10;52.30
18141;DHT22;9196;49.194;12.526;2023-07-13T12:48:58;27.20;51.60
18141;DHT22;9196;49.194;12.526;2023-07-13T12:51:27;27.40;51.20
18141;DHT22;9196;49.194;12.526;2023-07-13T12:54:06;27.30;49.20
18141;DHT22;9196;49.194;12.526;2023-07-13T12:56:37;27.50;52.10
18141;DHT22;9196;49.194;12.526;2023-07-13T12:59:04;27.60;50.80
18141;DHT22;9196;49.194;12.526;2023-07-13T13:01:34;27.80;49.10
18141;DHT22;9196;49.194;12.526;2023-07-13T13:04:03;27.80;48.00
18141;DHT22;9196;49.194;12.526;2023-07-13T13:06:32;27.40;47.10
18141;DHT22;9196;49.194;12.526;2023-07-13T13:09:03;26.80;47.20
18141;DHT22;9196;49.194;12.526;2023-07-13T13:11:31;26.90;50.00
18141;DHT22;9196;49.194;12.526;2023-07-13T13:13:58;27.40;50.50
18141;DHT22;9196;49.194;12.526;2023-07-13T13:16:31;27.60;48.20
18141;DHT22;9196;49.194;12.526;2023-07-13T13:19:00;27.90;50.00
18141;DHT22;9196;49.194;12.526;2023-07-13T13:21:30;27.80;47.80
18141;DHT22;9196;49.194;12.526;2023-07-13T13:23:58;27.90;49.50
18141;DHT22;9196;49.194;12.526;2023-07-13T13:26:26;28.10;49.20
18141;DHT22;9196;49.194;12.526;2023-07-13T13:28:53;28.20;47.80
18141;DHT22;9196;49.194;12.526;2023-07-13T13:31:20;28.20;46.80
18141;DHT22;9196;49.194;12.526;2023-07-13T13:33:47;28.20;48.90
18141;DHT22;9196;49.194;12.526;2023-07-13T13:36:15;28.20;47.70
18141;DHT22;9196;49.194;12.526;2023-07-13T13:38:43;27.90;48.50
18141;DHT22;9196;49.194;12.526;2023-07-13T13:41:11;27.90;49.50
18141;DHT22;9196;49.194;12.526;2023-07-13T13:43:41;27.90;47.00
18141;DHT22;9196;49.194;12.526;2023-07-13T13:46:16;27.60;48.80
18141;DHT22;9196;49.194;12.526;2023-07-13T13:48:44;27.60;49.20
18141;DHT22;9196;49.194;12.526;2023-07-13T13:51:16;27.90;49.30
18141;DHT22;9196;49.194;12.526;2023-07-13T13:53:44;28.20;49.50
18141;DHT22;9196;49.194;12.526;2023-07-13T13:56:11;28.70;49.10
18141;DHT22;9196;49.194;12.526;2023-07-13T13:58:39;28.90;48.90
18141;DHT22;9196;49.194;12.526;2023-07-13T14:01:12;28.90;47.70
18141;DHT22;9196;49.194;12.526;2023-07-13T14:03:39;29.20;47.80
18141;DHT22;9196;49.194;12.526;2023-07-13T14:06:08;29.00;47.70
18141;DHT22;9196;49.194;12.526;2023-07-13T14:08:36;28.80;47.00
18141;DHT22;9196;49.194;12.526;2023-07-13T14:11:03;28.50;48.20
18141;DHT22;9196;49.194;12.526;2023-07-13T14:13:34;28.50;47.50
18141;DHT22;9196;49.194;12.526;2023-07-13T14:16:08;28.40;46.90
18141;DHT22;9196;49.194;12.526;2023-07-13T14:18:35;28.50;47.60
18141;DHT22;9196;49.194;12.526;2023-07-13T14:21:02;28.50;47.10
18141;DHT22;9196;49.194;12.526;2023-07-13T14:23:29;28.30;46.70
18141;DHT22;9196;49.194;12.526;2023-07-13T14:25:56;28.10;48.40
18141;DHT22;9196;49.194;12.526;2023-07-13T14:28:24;28.10;47.80
18141;DHT22;9196;49.194;12.526;2023-07-13T14:30:51;28.00;48.10
18141;DHT22;9196;49.194;12.526;2023-07-13T14:33:21;28.00;46.70
18141;DHT22;9196;49.194;12.526;2023-07-13T14:35:49;28.20;48.10
18141;DHT22;9196;49.194;12.526;2023-07-13T14:38:18;28.10;47.60
18141;DHT22;9196;49.194;12.526;2023-07-13T14:40:46;28.00;48.90
18141;DHT22;9196;49.194;12.526;2023-07-13T14:43:14;27.80;46.60
18141;DHT22;9196;49.194;12.526;2023-07-13T14:45:42;27.80;48.10
18141;DHT22;9196;49.194;12.526;2023-07-13T14:48:14;27.70;46.50
18141;DHT22;9196;49.194;12.526;2023-07-13T14:50:43;27.50;48.40
18141;DHT22;9196;49.194;12.526;2023-07-13T14:53:11;27.50;48.90
18141;DHT22;9196;49.194;12.526;2023-07-13T14:55:37;27.50;47.60
18141;DHT22;9196;49.194;12.526;2023-07-13T14:58:04;27.40;47.20
18141;DHT22;9196;49.194;12.526;2023-07-13T15:00:31;27.50;46.80
18141;DHT22;9196;49.194;12.526;2023-07-13T15:02:59;27.50;47.80
18141;DHT22;9196;49.194;12.526;2023-07-13T15:05:28;27.70;47.70
18141;DHT22;9196;49.194;12.526;2023-07-13T15:07:59;27.80;48.60
18141;DHT22;9196;49.194;12.526;2023-07-13T15:10:28;28.00;47.70
18141;DHT22;9196;49.194;12.526;2023-07-13T15:13:12;28.40;48.40
18141;DHT22;9196;49.194;12.526;2023-07-13T15:15:40;28.50;45.40
18141;DHT22;9196;49.194;12.526;2023-07-13T15:18:09;28.60;46.20
18141;DHT22;9196;49.194;12.526;2023-07-13T15:20:37;28.40;47.10
18141;DHT22;9196;49.194;12.526;2023-07-13T15:23:06;28.40;46.00
18141;DHT22;9196;49.194;12.526;2023-07-13T15:25:33;28.30;46.20
18141;DHT22;9196;49.194;12.526;2023-07-13T15:28:00;28.20;47.20
18141;DHT22;9196;49.194;12.526;2023-07-13T15:30:29;28.00;45.60
18141;DHT22;9196;49.194;12.526;2023-07-13T15:33:00;27.90;45.90
18141;DHT22;9196;49.194;12.526;2023-07-13T15:35:28;28.00;46.30
18141;DHT22;9196;49.194;12.526;2023-07-13T15:37:55;28.20;47.10
18141;DHT22;9196;49.194;12.526;2023-07-13T15:40:24;28.40;46.20
18141;DHT22;9196;49.194;12.526;2023-07-13T15:42:52;28.50;47.40